Koshkonong, Missouri
Current Conditions -  °F | °C
As of 1:53 AM on Saturday 25 Oct 2014 (Local Time) from KUNO Reporting Station
Clear Clear  
Wind Chill: 15°   Ceiling: Unl
Heat Index: 15°   Visibility: 9mi
Dew Point: 13°   Wind: 5mph
Humidity: 90%   Direction: 250°WSW
Pressure: 30.07"   Gusts: NA
Location:  36.6°N, 91.65°W
Report Text: KUNO 250653Z AUTO 25004KT 9SM CLR 15/13 A3007 RMK AO2 SLP174 T01500133
Loading
Personal Weather Stations






























Interactive Weather Map
Tropical Storm Tracking
New forecast layout! Learn more

10-Day Weather Forecast

Advertisements
Track Severe Weather on mobile